Time;durP1;ratioP1;P1;durP2;ratioP2;P2;SDS_P1;SDS_P2;PMS_P1;PMS_P2;Temp;Humidity;BMP_temperature;BMP_pressure;BME280_temperature;BME280_humidity;BME280_pressure;Samples;Min_cycle;Max_cycle;Signal;HPM_P1;HPM_P2
2022/11/20 00:01:07;;;;;;;0.60;0.60;;;;;;;12.07;100.00;99476.41;5048527;28;20216;-74
2022/11/20 00:03:34;;;;;;;0.90;0.90;;;;;;;12.14;100.00;99470.34;5048502;28;20231;-74
2022/11/20 00:06:02;;;;;;;1.23;1.23;;;;;;;12.06;100.00;99440.88;5049083;28;20628;-74
2022/11/20 00:08:29;;;;;;;2.65;2.45;;;;;;;12.20;100.00;99461.69;5048756;28;20208;-74
2022/11/20 00:10:56;;;;;;;0.60;0.60;;;;;;;12.19;100.00;99460.81;5014018;28;20199;-74
2022/11/20 00:13:23;;;;;;;0.65;0.65;;;;;;;12.25;100.00;99458.19;5049089;28;20598;-74
2022/11/20 00:15:57;;;;;;;0.80;0.80;;;;;;;12.17;100.00;99451.25;5048652;28;20211;-75
2022/11/20 00:18:24;;;;;;;1.17;1.17;;;;;;;12.14;100.00;99449.53;5047978;28;20211;-74
2022/11/20 00:20:50;;;;;;;0.60;0.60;;;;;;;12.01;100.00;99450.44;5048418;28;20230;-74
2022/11/20 00:23:19;;;;;;;1.08;1.08;;;;;;;12.05;100.00;99449.56;5048159;28;20196;-74
2022/11/20 00:25:45;;;;;;;1.33;1.33;;;;;;;12.02;100.00;99441.75;5048094;28;21008;-75
2022/11/20 00:28:12;;;;;;;0.60;0.60;;;;;;;12.09;100.00;99430.50;5049089;28;20207;-74
2022/11/20 00:30:39;;;;;;;1.10;1.10;;;;;;;12.07;100.00;99432.22;5048676;28;20211;-75
2022/11/20 00:33:06;;;;;;;0.60;0.60;;;;;;;12.05;100.00;99409.72;5048536;28;20196;-74
2022/11/20 00:35:33;;;;;;;1.02;1.02;;;;;;;12.09;100.00;99412.31;5050162;28;20208;-75
2022/11/20 00:37:59;;;;;;;0.70;0.70;;;;;;;12.04;100.00;99413.19;5052867;28;20204;-74
2022/11/20 00:40:27;;;;;;;0.50;0.50;;;;;;;12.07;100.00;99408.84;5052589;28;20230;-74
2022/11/20 00:42:54;;;;;;;0.52;0.52;;;;;;;11.86;100.00;99377.72;5051965;28;20206;-74
2022/11/20 00:45:21;;;;;;;0.50;0.50;;;;;;;12.02;100.00;99391.56;5051106;28;20199;-74
2022/11/20 00:47:48;;;;;;;0.60;0.60;;;;;;;12.05;100.00;99389.81;5048390;28;20281;-74
2022/11/20 00:50:15;;;;;;;0.50;0.50;;;;;;;12.07;100.00;99400.19;5048195;28;20199;-75
2022/11/20 00:52:42;;;;;;;0.60;0.60;;;;;;;12.09;100.00;99401.94;5047867;28;20828;-74
2022/11/20 00:55:08;;;;;;;1.55;1.45;;;;;;;12.09;100.00;99399.34;5048301;28;20207;-74
2022/11/20 00:57:37;;;;;;;1.02;1.02;;;;;;;12.13;100.00;99400.19;5048115;28;20195;-74
2022/11/20 01:00:04;;;;;;;0.60;0.60;;;;;;;12.19;100.00;99392.38;5047692;28;20215;-74
2022/11/20 01:02:31;;;;;;;0.60;0.60;;;;;;;12.07;100.00;99377.66;5047200;28;20231;-75
2022/11/20 01:04:58;;;;;;;1.05;1.05;;;;;;;12.10;100.00;99369.84;5047919;28;20195;-74
2022/11/20 01:07:24;;;;;;;0.60;0.60;;;;;;;12.14;100.00;99378.50;5048333;28;20207;-75
2022/11/20 01:09:51;;;;;;;0.60;0.60;;;;;;;12.15;100.00;99359.47;5047753;28;20601;-75
2022/11/20 01:12:18;;;;;;;0.70;0.70;;;;;;;12.16;100.00;99377.66;5048310;28;20242;-74
2022/11/20 01:14:48;;;;;;;0.75;0.75;;;;;;;12.08;100.00;99358.63;5047130;28;20570;-75
2022/11/20 01:17:14;;;;;;;0.85;0.85;;;;;;;12.08;100.00;99362.94;5048246;28;20199;-75
2022/11/20 01:19:41;;;;;;;3.85;1.40;;;;;;;12.05;100.00;99343.03;5047497;28;20199;-75
2022/11/20 01:22:08;;;;;;;0.98;0.98;;;;;;;12.14;100.00;99358.59;5046662;28;20628;-74
2022/11/20 01:24:35;;;;;;;0.70;0.70;;;;;;;12.27;100.00;99356.84;5047509;28;20211;-75
2022/11/20 01:27:01;;;;;;;0.50;0.50;;;;;;;12.32;100.00;99348.13;5047664;28;20206;-75
2022/11/20 01:29:28;;;;;;;0.82;0.82;;;;;;;12.23;100.00;99321.31;5046970;28;20656;-74
2022/11/20 01:31:56;;;;;;;1.55;1.45;;;;;;;12.56;100.00;99360.16;5047413;28;20293;-75
2022/11/20 01:34:24;;;;;;;0.70;0.70;;;;;;;12.63;100.00;99368.78;5047194;28;20215;-74
2022/11/20 01:36:52;;;;;;;0.60;0.60;;;;;;;12.62;100.00;99373.16;5048284;28;20257;-75
2022/11/20 01:39:21;;;;;;;1.00;1.00;;;;;;;12.76;100.00;99375.69;5047339;28;20199;-75
2022/11/20 01:44:58;;;;;;;1.00;1.00;;;;;;;12.83;100.00;99361.78;5048847;28;20257;-74
2022/11/20 01:47:31;;;;;;;5.15;1.63;;;;;;;12.68;100.00;99331.50;4976390;28;20814;-75
2022/11/20 01:50:02;;;;;;;0.80;0.80;;;;;;;12.87;100.00;99353.06;4973029;28;20301;-74
2022/11/20 01:52:34;;;;;;;0.60;0.60;;;;;;;12.86;100.00;99364.34;4975434;28;20213;-74
2022/11/20 01:55:05;;;;;;;0.60;0.60;;;;;;;12.84;100.00;99361.75;4975338;28;20730;-75
2022/11/20 01:57:34;;;;;;;0.50;0.50;;;;;;;12.83;100.00;99340.94;4974815;28;20763;-74
2022/11/20 02:00:04;;;;;;;0.70;0.70;;;;;;;12.86;100.00;99349.59;4971494;28;20206;-75
2022/11/20 02:02:33;;;;;;;0.60;0.60;;;;;;;12.93;100.00;99364.31;4976382;28;20234;-74
2022/11/20 02:05:10;;;;;;;0.80;0.80;;;;;;;12.89;100.00;99341.78;4976693;28;20629;-74
2022/11/20 02:07:37;;;;;;;0.40;0.40;;;;;;;12.91;100.00;99355.63;4959395;28;20709;-74
2022/11/20 02:10:05;;;;;;;0.80;0.80;;;;;;;12.82;100.00;99323.59;4974836;28;20622;-75
2022/11/20 02:15:16;;;;;;;1.23;1.23;;;;;;;12.85;100.00;99334.00;4975694;28;20209;-75
2022/11/20 02:17:44;;;;;;;0.60;0.60;;;;;;;12.90;100.00;99316.63;4959693;28;20194;-75
2022/11/20 02:20:12;;;;;;;1.13;0.90;;;;;;;12.58;100.00;99267.41;4975230;28;20205;-75
2022/11/20 02:22:46;;;;;;;0.50;0.50;;;;;;;12.74;100.00;99309.78;4981760;28;20197;-74
2022/11/20 02:25:15;;;;;;;0.65;0.65;;;;;;;12.53;100.00;99278.69;5030701;28;20199;-75
2022/11/20 02:27:42;;;;;;;3.58;1.55;;;;;;;12.39;100.00;99261.44;5037665;28;20206;-74
2022/11/20 02:30:11;;;;;;;0.60;0.60;;;;;;;12.60;100.00;99275.19;5050839;28;20207;-74
2022/11/20 02:32:39;;;;;;;1.00;1.00;;;;;;;12.57;100.00;99260.47;5050937;28;20655;-75
2022/11/20 02:35:09;;;;;;;0.90;0.90;;;;;;;12.52;100.00;99245.78;5046791;28;21425;-75
2022/11/20 02:37:38;;;;;;;1.48;1.38;;;;;;;12.56;100.00;99234.47;5046012;28;20230;-75
2022/11/20 02:40:05;;;;;;;0.60;0.60;;;;;;;12.58;100.00;99243.16;5010964;28;20195;-75
2022/11/20 02:42:34;;;;;;;0.70;0.70;;;;;;;12.63;100.00;99255.22;5046907;28;20218;-75
2022/11/20 02:45:00;;;;;;;0.93;0.93;;;;;;;12.52;100.00;99246.63;5048279;28;20208;-75
2022/11/20 02:47:27;;;;;;;0.80;0.80;;;;;;;12.61;100.00;99235.31;5046311;28;20203;-75
2022/11/20 02:49:54;;;;;;;0.68;0.68;;;;;;;12.64;100.00;99256.09;5011500;28;20198;-75
2022/11/20 02:52:21;;;;;;;1.48;1.38;;;;;;;12.59;100.00;99252.69;5010402;28;20203;-75
2022/11/20 02:54:47;;;;;;;1.67;1.67;;;;;;;12.65;100.00;99253.50;5010006;28;20207;-75
2022/11/20 02:57:14;;;;;;;0.60;0.60;;;;;;;12.43;100.00;99205.09;5045944;28;20648;-76
2022/11/20 02:59:42;;;;;;;0.50;0.50;;;;;;;12.73;100.00;99232.66;5046169;28;20196;-75
2022/11/20 03:02:09;;;;;;;0.60;0.60;;;;;;;12.70;100.00;99249.13;5045789;28;20235;-75
2022/11/20 03:04:36;;;;;;;0.50;0.50;;;;;;;12.74;100.00;99236.94;5046384;28;20211;-75
2022/11/20 03:07:03;;;;;;;0.60;0.60;;;;;;;12.83;100.00;99253.38;5046405;28;20651;-75
2022/11/20 03:09:30;;;;;;;1.02;1.02;;;;;;;12.72;100.00;99249.97;5046165;28;20591;-75
2022/11/20 03:11:57;;;;;;;1.30;1.30;;;;;;;12.64;100.00;99249.16;5046148;28;20192;-75
2022/11/20 03:14:24;;;;;;;4.13;1.85;;;;;;;12.75;100.00;99243.88;5011561;28;20618;-75
2022/11/20 03:16:52;;;;;;;1.10;1.05;;;;;;;12.75;100.00;99249.97;5045857;28;20791;-75
2022/11/20 03:19:18;;;;;;;2.17;1.25;;;;;;;12.83;100.00;99274.19;5045320;28;20200;-75
2022/11/20 03:21:45;;;;;;;2.47;1.70;;;;;;;12.89;100.00;99274.13;5045886;28;20719;-75
2022/11/20 03:24:13;;;;;;;0.60;0.60;;;;;;;12.89;100.00;99284.53;5046272;28;20646;-75
2022/11/20 03:26:40;;;;;;;0.80;0.80;;;;;;;12.80;100.00;99281.16;5046046;28;20191;-75
2022/11/20 03:29:07;;;;;;;1.23;1.23;;;;;;;12.80;100.00;99281.16;5010337;28;20207;-75
2022/11/20 03:31:36;;;;;;;1.42;1.42;;;;;;;12.79;100.00;99279.41;5045509;28;20207;-75
2022/11/20 03:34:05;;;;;;;0.60;0.60;;;;;;;12.79;100.00;99285.47;5045352;28;20199;-75
2022/11/20 03:36:32;;;;;;;2.65;2.45;;;;;;;12.80;100.00;99283.75;5044488;28;20207;-75
2022/11/20 03:38:59;;;;;;;0.70;0.70;;;;;;;12.68;100.00;99289.88;5047998;28;20200;-75
2022/11/20 03:41:28;;;;;;;1.10;1.10;;;;;;;12.49;100.00;99302.97;5049342;28;20234;-75
2022/11/20 03:43:56;;;;;;;0.90;0.90;;;;;;;12.27;100.00;99277.09;5050555;28;20192;-75
2022/11/20 03:46:24;;;;;;;0.75;0.75;;;;;;;12.06;100.00;99272.00;5050716;28;20258;-74
2022/11/20 03:48:51;;;;;;;0.60;0.60;;;;;;;12.10;100.00;99294.50;5048724;28;20199;-75
2022/11/20 03:51:21;;;;;;;1.27;0.82;;;;;;;12.15;100.00;99299.69;5048928;28;20214;-76
2022/11/20 03:53:49;;;;;;;0.70;0.70;;;;;;;11.97;100.00;99297.16;5049406;28;20602;-75
2022/11/20 03:56:18;;;;;;;1.13;1.13;;;;;;;11.85;100.00;99308.44;5050350;28;20216;-75
2022/11/20 03:58:45;;;;;;;0.93;0.93;;;;;;;11.81;100.00;99307.59;5049088;28;20199;-76
2022/11/20 04:01:14;;;;;;;0.70;0.70;;;;;;;11.48;100.00;99281.69;5049129;28;20620;-75
2022/11/20 04:03:43;;;;;;;0.70;0.70;;;;;;;11.53;100.00;99289.44;5049090;28;20239;-76
2022/11/20 04:06:12;;;;;;;1.47;1.47;;;;;;;11.40;100.00;99292.06;5014708;28;20610;-75
2022/11/20 04:08:41;;;;;;;0.87;0.87;;;;;;;11.12;100.00;99241.06;5048402;28;20200;-76
2022/11/20 04:11:13;;;;;;;0.70;0.70;;;;;;;11.30;100.00;99273.91;5048529;28;20257;-75
2022/11/20 04:13:40;;;;;;;0.70;0.70;;;;;;;11.38;100.00;99280.81;5049668;28;20199;-75
2022/11/20 04:16:09;;;;;;;0.73;0.73;;;;;;;11.48;100.00;99318.03;5048458;28;20275;-76
2022/11/20 04:18:36;;;;;;;0.77;0.77;;;;;;;11.50;100.00;99321.47;5048959;28;20271;-76
2022/11/20 04:21:03;;;;;;;0.70;0.70;;;;;;;11.58;100.00;99324.06;5030304;28;20216;-76
2022/11/20 04:23:30;;;;;;;0.60;0.60;;;;;;;11.51;100.00;99314.53;5048916;28;20207;-75
2022/11/20 04:26:04;;;;;;;0.60;0.60;;;;;;;11.48;100.00;99297.25;5048873;28;20200;-75
2022/11/20 04:28:30;;;;;;;0.90;0.90;;;;;;;11.67;100.00;99329.22;5048449;28;20290;-75
2022/11/20 04:31:04;;;;;;;0.70;0.70;;;;;;;11.64;100.00;99334.41;5048433;28;20247;-75
2022/11/20 04:33:30;;;;;;;0.85;0.85;;;;;;;11.70;100.00;99335.28;5048641;28;20210;-76
2022/11/20 04:36:01;;;;;;;1.05;1.05;;;;;;;11.43;100.00;99307.63;5048970;28;20192;-75
2022/11/20 04:38:28;;;;;;;1.13;1.13;;;;;;;11.71;100.00;99352.63;5048716;28;20680;-76
2022/11/20 04:40:58;;;;;;;0.60;0.60;;;;;;;11.73;100.00;99363.91;5047497;28;20203;-76
2022/11/20 04:43:26;;;;;;;4.38;2.65;;;;;;;11.78;100.00;99353.47;5049734;28;20246;-75
2022/11/20 04:45:53;;;;;;;0.57;0.57;;;;;;;11.67;100.00;99363.84;5046235;28;20574;-75
2022/11/20 04:48:20;;;;;;;0.60;0.60;;;;;;;11.75;100.00;99379.44;5047980;28;20211;-75
2022/11/20 04:50:47;;;;;;;1.25;1.25;;;;;;;11.59;100.00;99398.50;5047747;28;20265;-76
2022/11/20 04:53:13;;;;;;;0.90;0.90;;;;;;;11.08;100.00;99400.16;5048938;28;20203;-76
2022/11/20 04:55:40;;;;;;;7.70;7.27;;;;;;;11.01;100.00;99423.50;5047994;28;20208;-75
2022/11/20 04:58:07;;;;;;;0.90;0.90;;;;;;;10.97;100.00;99412.25;5048248;28;20261;-75
2022/11/20 05:00:35;;;;;;;0.70;0.70;;;;;;;10.96;100.00;99428.66;5047614;28;20199;-76
2022/11/20 05:03:02;;;;;;;0.60;0.60;;;;;;;10.94;100.00;99448.56;5048431;28;20233;-75
2022/11/20 05:05:29;;;;;;;0.73;0.73;;;;;;;10.64;100.00;99458.78;5047536;28;20200;-75
2022/11/20 05:07:57;;;;;;;0.80;0.80;;;;;;;10.71;100.00;99451.03;5012230;28;20192;-76
2022/11/20 05:10:24;;;;;;;0.60;0.60;;;;;;;10.73;100.00;99471.81;5012240;28;20199;-76
2022/11/20 05:12:51;;;;;;;1.80;1.70;;;;;;;10.77;100.00;99468.38;5048282;28;20674;-75
2022/11/20 05:15:18;;;;;;;0.90;0.90;;;;;;;10.61;100.00;99466.56;5047642;28;20203;-76
2022/11/20 05:17:49;;;;;;;0.70;0.70;;;;;;;10.27;100.00;99406.75;5046979;28;20226;-75
2022/11/20 05:20:16;;;;;;;0.80;0.80;;;;;;;10.26;100.00;99462.06;5047093;28;20676;-75
2022/11/20 05:22:43;;;;;;;0.60;0.60;;;;;;;10.36;100.00;99484.56;5047455;28;20215;-76
2022/11/20 05:25:10;;;;;;;1.17;1.17;;;;;;;10.34;100.00;99478.53;5047680;28;20675;-74
2022/11/20 05:27:37;;;;;;;0.57;0.57;;;;;;;10.40;100.00;99485.44;5047093;28;20606;-76
2022/11/20 05:30:04;;;;;;;0.80;0.80;;;;;;;10.46;100.00;99464.75;5047337;28;20595;-75
2022/11/20 05:32:31;;;;;;;2.23;1.23;;;;;;;10.49;100.00;99493.25;5047432;28;20253;-75
2022/11/20 05:34:59;;;;;;;1.17;1.17;;;;;;;10.36;100.00;99497.53;5012164;28;20199;-75
2022/11/20 05:37:26;;;;;;;1.00;1.00;;;;;;;10.37;100.00;99501.84;5048835;28;20593;-74
2022/11/20 05:39:52;;;;;;;1.17;1.17;;;;;;;10.14;100.00;99503.41;5046935;28;20203;-74
2022/11/20 05:42:31;;;;;;;2.43;1.90;;;;;;;10.21;100.00;99501.72;5048198;28;20218;-75
2022/11/20 05:44:58;;;;;;;0.50;0.50;;;;;;;10.15;100.00;99525.88;5048910;28;20200;-75
2022/11/20 05:47:25;;;;;;;0.60;0.60;;;;;;;10.24;100.00;99536.28;5047630;28;20294;-74
2022/11/20 05:49:52;;;;;;;0.60;0.60;;;;;;;10.06;100.00;99530.94;5047126;28;20212;-75
2022/11/20 05:52:20;;;;;;;0.50;0.50;;;;;;;10.05;100.00;99539.56;5047848;28;20715;-74
2022/11/20 05:54:47;;;;;;;0.60;0.60;;;;;;;10.00;100.00;99541.25;5047046;28;20204;-75
2022/11/20 05:57:14;;;;;;;0.80;0.80;;;;;;;9.90;100.00;99534.25;5046935;28;20269;-76
2022/11/20 05:59:41;;;;;;;1.17;1.17;;;;;;;9.98;100.00;99548.16;5046937;28;20261;-74
2022/11/20 06:02:07;;;;;;;0.70;0.70;;;;;;;10.05;100.00;99544.75;5011510;28;20218;-74
2022/11/20 06:04:34;;;;;;;2.83;1.83;;;;;;;10.02;100.00;99543.88;5046871;28;20210;-77
2022/11/20 06:07:01;;;;;;;0.53;0.53;;;;;;;10.13;100.00;99558.63;5011813;28;20200;-74
2022/11/20 06:09:29;;;;;;;1.43;1.43;;;;;;;10.16;100.00;99566.47;5011309;28;20245;-74
2022/11/20 06:11:56;;;;;;;0.80;0.80;;;;;;;10.23;100.00;99576.03;5046860;28;20206;-77
2022/11/20 06:14:23;;;;;;;1.00;1.00;;;;;;;10.15;100.00;99556.09;5047726;28;20210;-76
2022/11/20 06:16:50;;;;;;;0.60;0.60;;;;;;;10.19;100.00;99595.00;5047293;28;20204;-75
2022/11/20 06:19:17;;;;;;;0.70;0.70;;;;;;;10.13;100.00;99600.06;5046353;28;20191;-77
2022/11/20 06:21:44;;;;;;;0.70;0.70;;;;;;;10.11;100.00;99611.28;5046148;28;20281;-77
2022/11/20 06:24:11;;;;;;;0.70;0.70;;;;;;;10.06;100.00;99629.34;5046765;28;20195;-76
2022/11/20 06:26:39;;;;;;;6.40;1.83;;;;;;;10.14;100.00;99621.66;5046257;28;20207;-77
2022/11/20 06:29:06;;;;;;;0.60;0.60;;;;;;;10.14;100.00;99627.75;5045259;28;20211;-76
2022/11/20 06:31:34;;;;;;;0.53;0.53;;;;;;;10.03;100.00;99629.31;5046032;28;20195;-76
2022/11/20 06:34:01;;;;;;;1.30;1.17;;;;;;;10.20;100.00;99604.47;5045936;28;20195;-78
2022/11/20 06:36:28;;;;;;;1.70;1.00;;;;;;;10.07;100.00;99622.44;5028573;28;20218;-76
2022/11/20 06:38:55;;;;;;;0.80;0.80;;;;;;;10.10;100.00;99651.84;5045683;28;20199;-78
2022/11/20 06:41:23;;;;;;;0.70;0.70;;;;;;;10.11;100.00;99632.00;5027777;28;20235;-78
2022/11/20 06:43:51;;;;;;;0.60;0.60;;;;;;;10.23;100.00;99633.03;5048102;28;20207;-78
2022/11/20 06:46:20;;;;;;;1.07;1.07;;;;;;;9.96;100.00;99628.41;5002165;28;20242;-77
2022/11/20 06:48:47;;;;;;;0.87;0.87;;;;;;;10.04;100.00;99653.50;5026722;28;20581;-78
2022/11/20 06:51:14;;;;;;;0.80;0.80;;;;;;;10.12;100.00;99660.50;5045891;28;20199;-78
2022/11/20 06:53:41;;;;;;;0.60;0.60;;;;;;;10.05;100.00;99658.72;5046662;28;20199;-78
2022/11/20 06:56:08;;;;;;;1.00;1.00;;;;;;;10.04;100.00;99656.97;5046073;28;20195;-78
2022/11/20 06:58:36;;;;;;;0.63;0.63;;;;;;;10.08;100.00;99661.34;5046143;28;20556;-77
2022/11/20 07:01:06;;;;;;;0.60;0.60;;;;;;;10.10;100.00;99671.69;5048639;28;20203;-78
2022/11/20 07:03:32;;;;;;;1.23;1.23;;;;;;;10.03;100.00;99668.16;5049677;28;20661;-77
2022/11/20 07:06:01;;;;;;;0.77;0.77;;;;;;;9.88;100.00;99675.81;5050083;28;20199;-80
2022/11/20 07:08:28;;;;;;;0.60;0.60;;;;;;;9.84;100.00;99663.66;5050577;28;20253;-77
2022/11/20 07:10:59;;;;;;;0.60;0.60;;;;;;;10.07;100.00;99664.75;5050611;28;20214;-77
2022/11/20 07:13:26;;;;;;;1.20;1.13;;;;;;;9.94;100.00;99656.00;5053130;28;20261;-77
2022/11/20 07:15:53;;;;;;;1.87;1.77;;;;;;;9.79;100.00;99661.03;5054718;28;20210;-78
2022/11/20 07:18:22;;;;;;;0.60;0.60;;;;;;;9.80;100.00;99665.34;5034604;28;20211;-78
2022/11/20 07:20:48;;;;;;;0.60;0.60;;;;;;;9.69;100.00;99653.13;5054458;28;20283;-78
2022/11/20 07:23:15;;;;;;;2.30;2.20;;;;;;;9.74;100.00;99654.03;5054184;28;20612;-78
2022/11/20 07:25:42;;;;;;;1.93;1.93;;;;;;;9.69;100.00;99645.38;5054264;28;20589;-78
2022/11/20 07:28:10;;;;;;;0.73;0.73;;;;;;;9.46;100.00;99565.75;5054450;28;20221;-79
2022/11/20 07:30:37;;;;;;;1.13;1.13;;;;;;;9.87;100.00;99649.03;5053563;28;20203;-79
2022/11/20 07:33:04;;;;;;;0.70;0.70;;;;;;;10.09;100.00;99672.56;5053853;28;20203;-77
2022/11/20 07:35:32;;;;;;;0.60;0.60;;;;;;;10.12;100.00;99663.09;5053427;28;20206;-78
2022/11/20 07:37:59;;;;;;;0.70;0.70;;;;;;;10.07;100.00;99656.13;5052497;28;20202;-77
2022/11/20 07:40:26;;;;;;;0.60;0.60;;;;;;;10.27;100.00;99665.84;5018238;28;20207;-78
2022/11/20 07:42:54;;;;;;;0.60;0.60;;;;;;;10.30;100.00;99665.03;5034818;28;20231;-78
2022/11/20 07:45:22;;;;;;;1.33;1.33;;;;;;;10.21;100.00;99664.94;5053171;28;20203;-76
2022/11/20 07:47:50;;;;;;;0.50;0.50;;;;;;;10.18;100.00;99675.28;5044152;28;20220;-78
2022/11/20 07:50:17;;;;;;;0.80;0.80;;;;;;;10.16;100.00;99677.84;5048461;28;20196;-78
2022/11/20 07:52:45;;;;;;;0.60;0.60;;;;;;;10.31;100.00;99646.88;5053778;28;20200;-78
2022/11/20 07:55:12;;;;;;;1.90;1.47;;;;;;;10.32;100.00;99663.31;5018073;28;20203;-79
2022/11/20 07:57:39;;;;;;;1.00;1.00;;;;;;;10.51;100.00;99669.53;5053258;28;20215;-80
2022/11/20 08:00:08;;;;;;;0.57;0.57;;;;;;;10.82;100.00;99662.00;5053168;28;20207;-78
2022/11/20 08:02:37;;;;;;;0.80;0.80;;;;;;;10.48;100.00;99659.16;5052600;28;20239;-79
2022/11/20 08:05:05;;;;;;;0.90;0.90;;;;;;;10.58;100.00;99687.75;5053136;28;20203;-78
2022/11/20 08:07:36;;;;;;;0.60;0.60;;;;;;;10.54;100.00;99672.16;5052761;28;20202;-78
2022/11/20 08:10:05;;;;;;;0.60;0.60;;;;;;;10.97;100.00;99675.94;5046134;28;20218;-78
2022/11/20 08:15:16;;;;;;;0.60;0.60;;;;;;;11.01;100.00;99663.00;5020350;28;20202;-80
2022/11/20 08:17:43;;;;;;;0.50;0.50;;;;;;;11.54;100.00;99684.06;5016767;28;20261;-79
2022/11/20 08:20:11;;;;;;;0.60;0.60;;;;;;;11.55;100.00;99688.41;5044469;28;20205;-78
2022/11/20 08:22:37;;;;;;;0.63;0.63;;;;;;;11.65;100.00;99682.38;5029185;28;20227;-79
2022/11/20 08:25:06;;;;;;;0.50;0.50;;;;;;;11.81;100.00;99722.28;5051203;28;20203;-78
2022/11/20 08:27:33;;;;;;;0.60;0.60;;;;;;;11.88;100.00;99705.84;5051143;28;20230;-77
2022/11/20 08:30:00;;;;;;;3.10;2.83;;;;;;;11.90;100.00;99717.13;5052034;28;20302;-76
2022/11/20 08:32:27;;;;;;;0.55;0.55;;;;;;;11.91;100.00;99719.72;5051251;28;20234;-80
2022/11/20 08:34:54;;;;;;;1.40;1.40;;;;;;;11.83;100.00;99721.44;5051000;28;20257;-78
2022/11/20 08:37:20;;;;;;;0.60;0.60;;;;;;;11.90;100.00;99746.59;5051073;28;20253;-79
2022/11/20 08:39:47;;;;;;;0.50;0.50;;;;;;;11.99;100.00;99748.34;5051572;28;20199;-78
2022/11/20 08:42:15;;;;;;;0.70;0.70;;;;;;;12.22;100.00;99749.31;5043001;28;20223;-76
2022/11/20 08:44:42;;;;;;;0.50;0.50;;;;;;;12.19;100.00;99746.69;5043013;28;20215;-78
2022/11/20 08:47:09;;;;;;;0.60;0.60;;;;;;;12.02;100.00;99743.16;5051660;28;20202;-77
2022/11/20 08:49:36;;;;;;;0.60;0.60;;;;;;;12.03;100.00;99739.69;5051248;28;20204;-78
2022/11/20 08:52:03;;;;;;;0.55;0.55;;;;;;;11.96;100.00;99740.53;5044064;28;20192;-78
2022/11/20 08:54:30;;;;;;;0.60;0.60;;;;;;;12.18;100.00;99739.75;5016381;28;20204;-78
2022/11/20 08:56:56;;;;;;;0.60;0.60;;;;;;;12.35;100.00;99742.38;5031985;28;20204;-78
2022/11/20 08:59:25;;;;;;;0.70;0.70;;;;;;;12.70;100.00;99734.66;5050996;28;20660;-76
2022/11/20 09:01:51;;;;;;;1.20;1.20;;;;;;;12.84;100.00;99738.13;5050625;28;20214;-74
2022/11/20 09:04:18;;;;;;;1.10;1.10;;;;;;;12.83;100.00;99747.69;5051321;28;20206;-76
2022/11/20 09:06:45;;;;;;;0.77;0.77;;;;;;;13.06;100.00;99752.00;5050717;28;20203;-75
2022/11/20 09:09:12;;;;;;;0.60;0.60;;;;;;;12.37;100.00;99642.75;5049849;28;20204;-84
2022/11/20 09:11:38;;;;;;;0.50;0.50;;;;;;;12.99;100.00;99738.13;5051475;28;20207;-74
2022/11/20 09:14:05;;;;;;;3.40;1.52;;;;;;;12.96;100.00;99709.50;5050999;28;20211;-79
2022/11/20 09:16:33;;;;;;;0.75;0.75;;;;;;;13.18;100.00;99716.44;5050819;28;20596;-77
2022/11/20 09:19:00;;;;;;;0.50;0.50;;;;;;;13.40;100.00;99736.38;5050186;28;20227;-78
2022/11/20 09:21:27;;;;;;;0.60;0.60;;;;;;;13.40;100.00;99725.09;5050918;28;20676;-79
2022/11/20 09:23:54;;;;;;;0.60;0.60;;;;;;;13.38;100.00;99721.59;5050653;28;20223;-77
2022/11/20 09:26:21;;;;;;;0.50;0.50;;;;;;;13.41;100.00;99732.06;5043646;28;20222;-74
2022/11/20 09:28:47;;;;;;;0.50;0.50;;;;;;;13.41;100.00;99721.63;5050165;28;20211;-75
2022/11/20 09:31:22;;;;;;;0.88;0.88;;;;;;;13.44;100.00;99692.97;5050187;28;20210;-77
2022/11/20 09:33:50;;;;;;;1.50;1.50;;;;;;;13.15;100.00;99698.25;5050897;28;20211;-77
2022/11/20 09:36:18;;;;;;;0.70;0.70;;;;;;;13.03;100.00;99677.38;5049929;28;20211;-77
2022/11/20 09:38:45;;;;;;;0.70;0.70;;;;;;;12.94;100.00;99703.44;5050293;28;20231;-77
2022/11/20 09:41:30;;;;;;;0.70;0.70;;;;;;;12.79;100.00;99673.09;5050532;28;20203;-78
2022/11/20 09:44:04;;;;;;;0.60;0.60;;;;;;;12.40;100.00;99666.16;5032105;28;20231;-78
2022/11/20 09:46:45;;;;;;;0.50;0.50;;;;;;;12.31;100.00;99676.53;5050547;28;20218;-78
2022/11/20 09:49:25;;;;;;;0.50;0.50;;;;;;;12.48;100.00;99686.97;5013932;28;20203;-76
2022/11/20 09:51:58;;;;;;;0.77;0.77;;;;;;;12.65;100.00;99685.22;5049266;28;20211;-79
2022/11/20 09:54:30;;;;;;;0.55;0.55;;;;;;;12.74;100.00;99679.16;5031888;28;20203;-78
2022/11/20 09:57:01;;;;;;;2.30;0.98;;;;;;;12.79;100.00;99669.63;5050439;28;20211;-77
2022/11/20 09:59:36;;;;;;;0.60;0.60;;;;;;;12.57;100.00;99666.16;5049158;28;20298;-79
2022/11/20 10:02:13;;;;;;;0.50;0.50;;;;;;;12.99;100.00;99673.06;5049826;28;20195;-84
2022/11/20 10:04:48;;;;;;;0.50;0.50;;;;;;;13.22;100.00;99694.75;5050626;28;20210;-77
2022/11/20 10:07:22;;;;;;;0.88;0.88;;;;;;;13.17;100.00;99696.50;5050038;28;20210;-79
2022/11/20 10:09:53;;;;;;;0.65;0.65;;;;;;;13.28;100.00;99699.94;5048807;28;20211;-79
2022/11/20 10:12:28;;;;;;;0.57;0.57;;;;;;;13.45;100.00;99688.63;5049663;28;20196;-78
2022/11/20 10:15:11;;;;;;;0.70;0.70;;;;;;;13.59;100.00;99679.88;5049610;28;20207;-76
2022/11/20 10:18:14;;;;;;;1.20;1.20;;;;;;;13.28;100.00;99683.44;5046259;28;20818;-81
2022/11/20 10:20:49;;;;;;;1.15;1.15;;;;;;;13.16;100.00;99663.50;5046838;28;20214;-80
2022/11/20 10:23:45;;;;;;;0.55;0.55;;;;;;;13.24;100.00;99687.78;5014697;28;20653;-79
2022/11/20 10:26:22;;;;;;;0.50;0.50;;;;;;;13.02;100.00;99643.59;5039455;28;20208;-79
2022/11/20 10:29:09;;;;;;;0.68;0.68;;;;;;;12.97;100.00;99671.34;5049861;28;20288;-79
2022/11/20 10:31:38;;;;;;;0.60;0.60;;;;;;;12.85;100.00;99646.19;5027821;28;20207;-80
2022/11/20 10:34:13;;;;;;;0.93;0.93;;;;;;;12.94;100.00;99687.81;5048528;28;20199;-82
2022/11/20 10:36:47;;;;;;;0.60;0.60;;;;;;;12.79;100.00;99688.69;5050383;28;20203;-85
2022/11/20 10:39:23;;;;;;;0.50;0.50;;;;;;;12.77;100.00;99684.38;5051127;28;20660;-82
2022/11/20 10:41:52;;;;;;;0.52;0.52;;;;;;;12.52;100.00;99674.84;5049278;28;20206;-84
2022/11/20 10:47:04;;;;;;;0.60;0.60;;;;;;;11.77;100.00;99595.91;5055712;28;20200;-81
2022/11/20 10:49:33;;;;;;;0.60;0.60;;;;;;;12.18;100.00;99660.91;5049136;28;20253;-79
2022/11/20 10:52:12;;;;;;;0.60;0.60;;;;;;;12.27;100.00;99660.94;5053789;28;20214;-81
2022/11/20 10:54:47;;;;;;;1.13;1.13;;;;;;;12.14;100.00;99639.25;5051847;28;20269;-80
2022/11/20 10:57:26;;;;;;;0.57;0.57;;;;;;;12.18;100.00;99661.78;5049055;28;20688;-80
2022/11/20 11:00:04;;;;;;;1.00;1.00;;;;;;;12.11;100.00;99674.75;5053204;28;20210;-79
2022/11/20 11:02:35;;;;;;;0.70;0.70;;;;;;;12.01;100.00;99639.22;5057214;28;20605;-83
2022/11/20 11:05:13;;;;;;;0.60;0.60;;;;;;;12.23;100.00;99643.59;5057415;28;20207;-80
2022/11/20 11:07:42;;;;;;;0.55;0.55;;;;;;;12.74;100.00;99645.31;5052141;28;20596;-81
2022/11/20 11:10:17;;;;;;;0.52;0.52;;;;;;;13.05;100.00;99621.03;5051545;28;20226;-78
2022/11/20 11:12:46;;;;;;;0.95;0.95;;;;;;;12.87;100.00;99629.72;5041716;28;20293;-75
2022/11/20 11:15:25;;;;;;;0.60;0.60;;;;;;;12.98;100.00;99615.81;5053358;28;20195;-78
2022/11/20 11:17:51;;;;;;;0.50;0.50;;;;;;;12.98;100.00;99618.44;5053716;28;20218;-77
2022/11/20 11:20:20;;;;;;;0.50;0.50;;;;;;;13.00;100.00;99608.88;5052793;28;20203;-82
2022/11/20 11:22:50;;;;;;;0.50;0.50;;;;;;;12.82;100.00;99625.38;5053956;28;20227;-86
2022/11/20 11:25:26;;;;;;;1.63;1.63;;;;;;;12.36;100.00;99620.22;5054602;28;20653;-84
2022/11/20 11:27:56;;;;;;;1.05;1.05;;;;;;;12.39;100.00;99667.00;5044898;28;20210;-82
2022/11/20 11:30:24;;;;;;;0.70;0.70;;;;;;;12.01;100.00;99649.63;5053453;28;20657;-83
2022/11/20 11:32:51;;;;;;;0.60;0.60;;;;;;;11.88;100.00;99675.56;5053005;28;20196;-82
2022/11/20 11:35:24;;;;;;;0.90;0.90;;;;;;;11.67;100.00;99661.59;5053567;28;20265;-82
2022/11/20 11:37:55;;;;;;;3.60;1.60;;;;;;;11.55;100.00;99683.22;5053136;28;20687;-81
2022/11/20 11:40:23;;;;;;;0.70;0.70;;;;;;;11.00;100.00;99618.88;5052112;28;20270;-83
2022/11/20 11:42:57;;;;;;;0.77;0.77;;;;;;;11.15;100.00;99683.84;5053610;28;20278;-84
2022/11/20 11:45:23;;;;;;;0.70;0.70;;;;;;;11.09;100.00;99666.53;5053117;28;20289;-82